createdAt,value
2018-06-28T00:00:39.082Z,19.30
2018-06-28T00:03:07.293Z,19.30
2018-06-28T00:05:35.494Z,19.30
2018-06-28T00:08:03.735Z,19.20
2018-06-28T00:10:31.957Z,19.20
2018-06-28T00:13:00.221Z,19.10
2018-06-28T00:15:28.445Z,19.10
2018-06-28T00:17:56.670Z,19.00
2018-06-28T00:20:24.878Z,19.00
2018-06-28T00:22:53.098Z,18.90
2018-06-28T00:25:21.314Z,18.90
2018-06-28T00:27:49.517Z,18.90
2018-06-28T00:30:17.737Z,18.80
2018-06-28T00:32:45.933Z,18.80
2018-06-28T00:35:14.137Z,18.80
2018-06-28T00:37:42.379Z,18.70
2018-06-28T00:40:10.587Z,18.70
2018-06-28T00:42:38.809Z,18.60
2018-06-28T00:45:07.047Z,18.60
2018-06-28T00:47:35.265Z,18.50
2018-06-28T00:50:03.585Z,18.50
2018-06-28T00:52:31.817Z,18.50
2018-06-28T00:55:00.014Z,18.50
2018-06-28T00:57:28.230Z,18.40
2018-06-28T00:59:56.461Z,18.40
2018-06-28T01:02:24.681Z,18.40
2018-06-28T01:04:52.898Z,18.40
2018-06-28T01:07:21.129Z,18.30
2018-06-28T01:09:49.354Z,18.30
2018-06-28T01:12:17.586Z,18.30
2018-06-28T01:14:45.953Z,18.30
2018-06-28T01:17:14.346Z,18.20
2018-06-28T01:19:42.559Z,18.20
2018-06-28T01:22:10.760Z,18.10
2018-06-28T01:24:38.991Z,18.10
2018-06-28T01:27:07.224Z,18.10
2018-06-28T01:29:35.461Z,18.00
2018-06-28T01:32:05.056Z,18.00
2018-06-28T01:34:33.615Z,18.00
2018-06-28T01:37:01.826Z,17.90
2018-06-28T01:39:30.061Z,17.90
2018-06-28T01:42:09.534Z,17.90
2018-06-28T01:44:37.754Z,17.80
2018-06-28T01:47:06.034Z,17.80
2018-06-28T01:49:34.249Z,17.80
2018-06-28T01:52:02.450Z,17.70
2018-06-28T01:54:30.736Z,17.70
2018-06-28T01:56:58.893Z,17.70
2018-06-28T01:59:27.117Z,17.70
2018-06-28T02:01:55.322Z,17.70
2018-06-28T02:04:23.703Z,17.70
2018-06-28T02:06:51.977Z,17.60
2018-06-28T02:09:20.175Z,17.60
2018-06-28T02:11:48.393Z,17.50
2018-06-28T02:14:16.603Z,17.50
2018-06-28T02:16:44.851Z,17.50
2018-06-28T02:19:13.065Z,17.50
2018-06-28T02:21:41.301Z,17.40
2018-06-28T02:24:09.501Z,17.50
2018-06-28T02:26:37.705Z,17.40
2018-06-28T02:29:05.931Z,17.40
2018-06-28T02:31:34.176Z,17.40
2018-06-28T02:34:02.440Z,17.30
2018-06-28T02:36:30.626Z,17.30
2018-06-28T02:38:58.844Z,17.30
2018-06-28T02:41:27.106Z,17.30
2018-06-28T02:43:55.305Z,17.30
2018-06-28T02:46:23.518Z,17.20
2018-06-28T02:48:52.502Z,17.20
2018-06-28T02:51:20.734Z,17.10
2018-06-28T02:53:48.993Z,17.10
2018-06-28T02:56:17.197Z,17.10
2018-06-28T02:58:45.438Z,17.10
2018-06-28T03:01:13.629Z,17.10
2018-06-28T03:03:41.842Z,17.10
2018-06-28T03:06:10.065Z,17.10
2018-06-28T03:08:38.290Z,17.10
2018-06-28T03:11:06.495Z,17.10
2018-06-28T03:13:34.886Z,17.10
2018-06-28T03:16:03.078Z,17.00
2018-06-28T03:18:31.321Z,17.00
2018-06-28T03:20:59.527Z,17.00
2018-06-28T03:23:27.737Z,17.00
2018-06-28T03:25:55.967Z,17.00
2018-06-28T03:28:24.173Z,17.00
2018-06-28T03:30:52.442Z,17.00
2018-06-28T03:33:20.640Z,17.00
2018-06-28T03:35:48.846Z,17.00
2018-06-28T03:38:17.066Z,17.00
2018-06-28T03:40:45.297Z,17.00
2018-06-28T03:43:13.525Z,17.00
2018-06-28T03:48:09.718Z,17.00
2018-06-28T03:50:37.921Z,16.90
2018-06-28T03:53:06.139Z,17.00
2018-06-28T03:55:35.228Z,17.00
2018-06-28T03:58:03.473Z,16.90
2018-06-28T04:00:31.687Z,17.00
2018-06-28T04:02:59.892Z,16.90
2018-06-28T04:05:28.135Z,16.90
2018-06-28T04:07:56.377Z,16.90
2018-06-28T04:10:24.598Z,16.90
2018-06-28T04:12:52.830Z,16.90
2018-06-28T04:15:21.026Z,16.90
2018-06-28T04:17:49.266Z,16.90
2018-06-28T04:20:17.506Z,16.90
2018-06-28T04:22:45.706Z,16.90
2018-06-28T04:25:13.927Z,16.90
2018-06-28T04:27:42.114Z,16.80
2018-06-28T04:30:10.380Z,16.80
2018-06-28T04:32:38.593Z,16.80
2018-06-28T04:35:06.785Z,16.90
2018-06-28T04:37:35.002Z,16.90
2018-06-28T04:40:03.233Z,16.90
2018-06-28T04:42:31.542Z,16.90
2018-06-28T04:44:59.749Z,17.00
2018-06-28T04:47:27.981Z,17.00
2018-06-28T04:52:24.173Z,17.10
2018-06-28T04:54:52.391Z,17.10
2018-06-28T04:57:20.590Z,17.10
2018-06-28T04:59:48.804Z,17.10
2018-06-28T05:02:17.078Z,17.10
2018-06-28T05:04:45.283Z,17.10
2018-06-28T05:07:13.517Z,17.20
2018-06-28T05:09:41.709Z,17.20
2018-06-28T05:12:09.958Z,17.30
2018-06-28T05:14:38.161Z,17.30
2018-06-28T05:17:06.432Z,17.30
2018-06-28T05:19:34.707Z,17.40
2018-06-28T05:22:02.946Z,17.40
2018-06-28T05:24:31.142Z,17.40
2018-06-28T05:26:59.377Z,17.40
2018-06-28T05:29:27.612Z,17.50
2018-06-28T05:31:55.846Z,17.50
2018-06-28T05:34:24.342Z,17.50
2018-06-28T05:36:53.109Z,17.50
2018-06-28T05:39:22.010Z,17.60
2018-06-28T05:41:50.505Z,17.60
2018-06-28T05:44:18.969Z,17.70
2018-06-28T05:46:47.655Z,17.70
2018-06-28T05:49:16.094Z,17.70
2018-06-28T05:51:44.530Z,17.80
2018-06-28T05:54:13.552Z,17.80
2018-06-28T05:56:42.002Z,17.90
2018-06-28T05:59:10.673Z,18.00
2018-06-28T06:01:39.427Z,18.00
2018-06-28T06:04:07.902Z,18.10
2018-06-28T06:06:36.876Z,18.10
2018-06-28T06:09:07.229Z,18.20
2018-06-28T06:11:35.592Z,18.20
2018-06-28T06:14:04.186Z,18.30
2018-06-28T06:16:32.864Z,18.40
2018-06-28T06:19:01.537Z,18.50
2018-06-28T06:21:30.084Z,18.50
2018-06-28T06:23:59.381Z,18.60
2018-06-28T06:26:28.010Z,18.70
2018-06-28T06:28:56.748Z,18.70
2018-06-28T06:31:25.902Z,18.80
2018-06-28T06:33:55.047Z,18.90
2018-06-28T06:38:52.307Z,19.00
2018-06-28T06:41:21.787Z,19.10
2018-06-28T06:43:51.161Z,19.10
2018-06-28T06:46:20.003Z,19.20
2018-06-28T06:51:17.257Z,19.40
2018-06-28T06:53:45.739Z,19.50
2018-06-28T06:58:42.505Z,19.70
2018-06-28T07:01:10.913Z,19.70
2018-06-28T07:03:39.754Z,19.80
2018-06-28T07:06:08.562Z,19.90
2018-06-28T07:08:37.298Z,19.90
2018-06-28T07:11:06.122Z,20.00
2018-06-28T07:13:34.523Z,20.10
2018-06-28T07:16:03.172Z,20.20
2018-06-28T07:18:31.813Z,20.20
2018-06-28T07:21:00.319Z,20.30
2018-06-28T07:23:28.550Z,20.40
2018-06-28T07:25:56.754Z,20.40
2018-06-28T07:28:25.041Z,20.50
2018-06-28T07:30:53.272Z,20.60
2018-06-28T07:33:21.453Z,20.60
2018-06-28T07:35:49.674Z,20.70
2018-06-28T07:38:17.905Z,20.80
2018-06-28T07:40:46.296Z,20.80
2018-06-28T07:43:14.433Z,20.90
2018-06-28T07:45:42.634Z,21.00
2018-06-28T07:48:10.851Z,21.00
2018-06-28T07:50:39.679Z,21.10
2018-06-28T07:53:07.940Z,21.10
2018-06-28T07:55:36.193Z,21.10
2018-06-28T07:58:04.419Z,21.20
2018-06-28T08:00:32.634Z,21.20
2018-06-28T08:03:00.847Z,21.20
2018-06-28T08:05:29.209Z,21.30
2018-06-28T08:07:57.434Z,21.30
2018-06-28T08:10:25.643Z,21.40
2018-06-28T08:12:53.845Z,21.30
2018-06-28T08:15:22.046Z,21.40
2018-06-28T08:17:50.526Z,21.40
2018-06-28T08:20:18.750Z,21.40
2018-06-28T08:22:46.952Z,21.40
2018-06-28T08:25:15.149Z,21.50
2018-06-28T08:27:43.914Z,21.50
2018-06-28T08:30:12.121Z,21.60
2018-06-28T08:32:40.398Z,21.60
2018-06-28T08:35:08.613Z,21.70
2018-06-28T08:40:05.161Z,21.70
2018-06-28T08:42:33.414Z,21.80
2018-06-28T08:45:01.634Z,21.80
2018-06-28T08:47:29.846Z,21.80
2018-06-28T08:49:58.302Z,21.90
2018-06-28T08:52:26.494Z,22.00
2018-06-28T08:54:54.718Z,22.00
2018-06-28T08:57:23.401Z,22.10
2018-06-28T08:59:51.803Z,22.10
2018-06-28T09:02:20.078Z,22.10
2018-06-28T09:04:48.346Z,22.20
2018-06-28T09:07:16.797Z,22.20
2018-06-28T09:09:45.099Z,22.20
2018-06-28T09:12:13.271Z,22.30
2018-06-28T09:14:41.507Z,22.40
2018-06-28T09:17:09.729Z,22.40
2018-06-28T09:19:38.154Z,22.50
2018-06-28T09:22:06.569Z,22.50
2018-06-28T09:27:03.202Z,22.60
2018-06-28T09:29:31.681Z,22.70
2018-06-28T09:31:59.988Z,22.70
2018-06-28T09:34:28.803Z,22.70
2018-06-28T09:36:57.225Z,22.80
2018-06-28T09:39:25.560Z,22.80
2018-06-28T09:41:53.753Z,22.80
2018-06-28T09:44:21.986Z,22.80
2018-06-28T09:46:50.254Z,22.90
2018-06-28T09:49:18.465Z,22.90
2018-06-28T09:51:47.121Z,23.00
2018-06-28T09:56:43.301Z,23.20
2018-06-28T09:59:11.538Z,23.30
2018-06-28T10:01:39.772Z,23.30
2018-06-28T10:04:08.028Z,23.40
2018-06-28T10:06:36.317Z,23.40
2018-06-28T10:09:06.819Z,23.40
2018-06-28T10:11:35.056Z,23.40
2018-06-28T10:14:03.400Z,23.40
2018-06-28T10:16:31.634Z,23.40
2018-06-28T10:18:59.847Z,23.40
2018-06-28T10:21:28.092Z,23.40
2018-06-28T10:23:56.335Z,23.50
2018-06-28T10:26:24.537Z,23.50
2018-06-28T10:28:52.749Z,23.50
2018-06-28T10:31:20.992Z,23.50
2018-06-28T10:33:49.194Z,23.60
2018-06-28T10:36:17.429Z,23.60
2018-06-28T10:38:45.673Z,23.60
2018-06-28T10:41:13.878Z,23.70
2018-06-28T10:43:42.093Z,23.70
2018-06-28T10:46:10.325Z,23.80
2018-06-28T10:48:38.586Z,23.80
2018-06-28T10:51:06.926Z,23.90
2018-06-28T10:53:35.130Z,23.90
2018-06-28T10:56:03.338Z,24.00
2018-06-28T10:58:31.590Z,24.00
2018-06-28T11:00:59.806Z,24.00
2018-06-28T11:03:28.037Z,24.10
2018-06-28T11:05:56.240Z,24.10
2018-06-28T11:08:24.532Z,24.10
2018-06-28T11:10:52.761Z,24.10
2018-06-28T11:15:49.050Z,24.20
2018-06-28T11:18:17.229Z,24.20
2018-06-28T11:20:45.443Z,24.20
2018-06-28T11:23:13.677Z,24.20
2018-06-28T11:25:41.882Z,24.20
2018-06-28T11:28:10.106Z,24.20
2018-06-28T11:30:38.324Z,24.20
2018-06-28T11:33:06.569Z,24.30
2018-06-28T11:35:34.958Z,24.30
2018-06-28T11:38:03.161Z,24.40
2018-06-28T11:40:31.354Z,24.40
2018-06-28T11:42:59.541Z,24.40
2018-06-28T11:47:56.034Z,24.40
2018-06-28T11:50:24.310Z,24.30
2018-06-28T11:52:52.552Z,24.30
2018-06-28T11:55:20.777Z,24.40
2018-06-28T11:57:49.110Z,24.40
2018-06-28T12:00:17.317Z,24.40
2018-06-28T12:02:45.525Z,24.50
2018-06-28T12:05:13.784Z,24.50
2018-06-28T12:07:41.960Z,24.60
2018-06-28T12:10:10.209Z,24.70
2018-06-28T12:12:38.425Z,24.80
2018-06-28T12:15:06.653Z,24.80
2018-06-28T12:17:34.861Z,24.90
2018-06-28T12:20:03.991Z,24.90
2018-06-28T12:22:32.221Z,24.90
2018-06-28T12:25:00.430Z,24.80
2018-06-28T12:27:28.839Z,24.80
2018-06-28T12:29:57.054Z,24.80
2018-06-28T12:32:25.268Z,24.70
2018-06-28T12:34:53.535Z,24.70
2018-06-28T12:37:21.741Z,24.70
2018-06-28T12:39:49.948Z,24.70
2018-06-28T12:42:18.161Z,24.70
2018-06-28T12:48:16.830Z,24.80
2018-06-28T12:50:45.085Z,24.80
2018-06-28T12:53:13.419Z,24.70
2018-06-28T12:56:18.729Z,24.70
2018-06-28T12:58:47.002Z,24.70
2018-06-28T13:01:15.274Z,24.70
2018-06-28T13:03:43.469Z,24.70
2018-06-28T13:06:11.688Z,24.70
2018-06-28T13:08:39.887Z,24.70
2018-06-28T13:11:08.305Z,24.80
2018-06-28T13:13:36.559Z,24.80
2018-06-28T13:16:04.752Z,24.80
2018-06-28T13:18:32.955Z,24.90
2018-06-28T13:21:01.202Z,24.90
2018-06-28T13:23:29.384Z,24.90
2018-06-28T13:25:57.849Z,24.90
2018-06-28T13:28:26.348Z,24.90
2018-06-28T13:30:54.928Z,24.90
2018-06-28T13:33:23.273Z,24.90
2018-06-28T13:35:51.521Z,24.90
2018-06-28T13:38:19.976Z,24.90
2018-06-28T13:40:48.346Z,24.90
2018-06-28T13:43:16.881Z,25.00
2018-06-28T13:45:45.445Z,25.00
2018-06-28T13:48:14.037Z,25.00
2018-06-28T13:50:42.431Z,25.10
2018-06-28T13:53:10.871Z,25.10
2018-06-28T13:55:39.451Z,25.10
2018-06-28T13:58:08.185Z,25.10
2018-06-28T14:00:37.310Z,25.10
2018-06-28T14:03:05.989Z,25.10
2018-06-28T14:05:34.504Z,25.10
2018-06-28T14:08:03.038Z,25.10
2018-06-28T14:10:31.805Z,25.10
2018-06-28T14:13:01.630Z,25.10
2018-06-28T14:15:30.335Z,25.10
2018-06-28T14:17:59.149Z,25.10
2018-06-28T14:20:27.574Z,25.10
2018-06-28T14:22:55.768Z,25.10
2018-06-28T14:25:23.970Z,25.10
2018-06-28T14:30:20.125Z,25.10
2018-06-28T14:32:48.561Z,25.10
2018-06-28T14:35:16.774Z,25.10
2018-06-28T14:37:44.982Z,25.10
2018-06-28T14:40:13.190Z,25.10
2018-06-28T14:42:41.442Z,25.10
2018-06-28T14:45:09.755Z,25.00
2018-06-28T14:47:37.935Z,25.00
2018-06-28T14:50:06.213Z,25.00
2018-06-28T14:52:34.718Z,25.00
2018-06-28T14:55:03.178Z,25.00
2018-06-28T14:57:31.741Z,25.00
2018-06-28T15:00:00.187Z,25.00
2018-06-28T15:02:29.173Z,25.00
2018-06-28T15:04:57.915Z,25.00
2018-06-28T15:07:26.325Z,25.00
2018-06-28T15:09:54.734Z,25.00
2018-06-28T15:12:22.906Z,24.90
2018-06-28T15:14:51.114Z,24.90
2018-06-28T15:17:19.310Z,24.90
2018-06-28T15:19:47.636Z,25.00
2018-06-28T15:22:16.233Z,24.90
2018-06-28T15:24:44.558Z,24.90
2018-06-28T15:27:12.846Z,24.90
2018-06-28T15:29:41.449Z,24.90
2018-06-28T15:32:09.832Z,24.80
2018-06-28T15:34:38.192Z,24.80
2018-06-28T15:37:06.966Z,24.80
2018-06-28T15:39:35.346Z,24.70
2018-06-28T15:42:03.566Z,24.70
2018-06-28T15:44:31.766Z,24.70
2018-06-28T15:49:28.022Z,24.60
2018-06-28T15:51:56.303Z,24.60
2018-06-28T15:54:24.598Z,24.60
2018-06-28T15:56:52.901Z,24.50
2018-06-28T15:59:21.557Z,24.50
2018-06-28T16:01:49.998Z,24.50
2018-06-28T16:04:18.432Z,24.50
2018-06-28T16:06:47.130Z,24.40
2018-06-28T16:09:15.353Z,24.40
2018-06-28T16:11:43.681Z,24.40
2018-06-28T16:14:11.917Z,24.40
2018-06-28T16:16:40.134Z,24.30
2018-06-28T16:19:08.378Z,24.30
2018-06-28T16:21:37.163Z,24.30
2018-06-28T16:24:05.628Z,24.20
2018-06-28T16:26:33.878Z,24.20
2018-06-28T16:29:02.074Z,24.20
2018-06-28T16:31:30.281Z,24.10
2018-06-28T16:33:58.511Z,24.10
2018-06-28T16:36:26.717Z,24.00
2018-06-28T16:38:54.946Z,24.00
2018-06-28T16:41:23.272Z,23.90
2018-06-28T16:43:51.476Z,23.90
2018-06-28T16:46:19.692Z,23.80
2018-06-28T16:48:47.937Z,23.80
2018-06-28T16:51:16.909Z,23.80
2018-06-28T16:53:45.196Z,23.70
2018-06-28T16:56:13.385Z,23.70
2018-06-28T16:58:41.598Z,23.70
2018-06-28T17:01:09.805Z,23.60
2018-06-28T17:03:38.041Z,23.60
2018-06-28T17:06:06.289Z,23.50
2018-06-28T17:08:34.565Z,23.50
2018-06-28T17:11:02.765Z,23.40
2018-06-28T17:13:31.119Z,23.40
2018-06-28T17:15:59.351Z,23.40
2018-06-28T17:18:27.552Z,23.40
2018-06-28T17:20:55.745Z,23.30
2018-06-28T17:23:23.929Z,23.30
2018-06-28T17:25:52.361Z,23.30
2018-06-28T17:28:20.590Z,23.30
2018-06-28T17:30:48.865Z,23.20
2018-06-28T17:33:17.084Z,23.20
2018-06-28T17:35:45.280Z,23.20
2018-06-28T17:38:13.476Z,23.20
2018-06-28T17:40:41.719Z,23.10
2018-06-28T17:43:10.186Z,23.10
2018-06-28T17:45:38.377Z,23.10
2018-06-28T17:48:06.594Z,23.00
2018-06-28T17:50:34.889Z,23.00
2018-06-28T17:53:03.093Z,22.90
2018-06-28T17:55:32.030Z,22.90
2018-06-28T17:58:00.228Z,22.90
2018-06-28T18:02:56.382Z,22.80
2018-06-28T18:05:24.794Z,22.80
2018-06-28T18:07:52.985Z,22.80
2018-06-28T18:10:21.189Z,22.80
2018-06-28T18:12:49.399Z,22.80
2018-06-28T18:15:17.662Z,22.70
2018-06-28T18:17:45.890Z,22.70
2018-06-28T18:20:14.092Z,22.70
2018-06-28T18:25:10.282Z,22.60
2018-06-28T18:27:38.553Z,22.60
2018-06-28T18:30:06.856Z,22.60
2018-06-28T18:32:35.089Z,22.60
2018-06-28T18:35:03.486Z,22.60
2018-06-28T18:37:31.745Z,22.50
2018-06-28T18:40:00.033Z,22.50
2018-06-28T18:42:28.246Z,22.50
2018-06-28T18:44:56.442Z,22.40
2018-06-28T18:47:24.646Z,22.40
2018-06-28T18:49:53.115Z,22.40
2018-06-28T18:52:21.346Z,22.30
2018-06-28T18:54:49.525Z,22.30
2018-06-28T18:57:17.725Z,22.30
2018-06-28T18:59:45.924Z,22.30
2018-06-28T19:02:14.234Z,22.30
2018-06-28T19:04:42.420Z,22.30
2018-06-28T19:07:10.636Z,22.20
2018-06-28T19:09:44.276Z,22.20
2018-06-28T19:12:12.477Z,22.20
2018-06-28T19:14:46.060Z,22.20
2018-06-28T19:17:14.250Z,22.10
2018-06-28T19:19:42.543Z,22.10
2018-06-28T19:24:44.277Z,22.10
2018-06-28T19:27:12.485Z,22.10
2018-06-28T19:29:46.193Z,22.00
2018-06-28T19:32:19.829Z,22.00
2018-06-28T19:34:48.507Z,22.00
2018-06-28T19:37:22.138Z,22.00
2018-06-28T19:39:55.644Z,22.00
2018-06-28T19:42:29.317Z,22.00
2018-06-28T19:44:57.717Z,22.00
2018-06-28T19:47:25.912Z,21.90
2018-06-28T19:49:59.626Z,21.90
2018-06-28T19:52:33.154Z,21.90
2018-06-28T19:55:01.371Z,21.90
2018-06-28T19:57:29.618Z,21.90
2018-06-28T19:59:57.830Z,21.90
2018-06-28T20:02:31.508Z,21.90
2018-06-28T20:04:59.739Z,21.90
2018-06-28T20:07:27.938Z,21.90
2018-06-28T20:09:56.150Z,21.90
2018-06-28T20:12:29.650Z,21.80
2018-06-28T20:15:03.193Z,21.80
2018-06-28T20:19:38.338Z,21.80
2018-06-28T20:22:06.540Z,21.80
2018-06-28T20:24:35.720Z,21.70
2018-06-28T20:27:09.322Z,21.70
2018-06-28T20:29:42.988Z,21.70
2018-06-28T20:34:44.862Z,21.70
2018-06-28T20:37:13.054Z,21.60
2018-06-28T20:39:41.272Z,21.60
2018-06-28T20:42:09.471Z,21.50
2018-06-28T20:44:37.759Z,21.40
2018-06-28T20:47:06.037Z,21.40
2018-06-28T20:49:34.261Z,21.40
2018-06-28T20:52:02.466Z,21.40
2018-06-28T20:54:30.668Z,21.40
2018-06-28T20:56:59.145Z,21.40
2018-06-28T20:59:27.409Z,21.40
2018-06-28T21:01:55.601Z,21.40
2018-06-28T21:04:23.963Z,21.40
2018-06-28T21:06:52.162Z,21.40
2018-06-28T21:09:20.381Z,21.40
2018-06-28T21:11:48.802Z,21.40
2018-06-28T21:14:17.014Z,21.40
2018-06-28T21:16:45.218Z,21.40
2018-06-28T21:19:13.402Z,21.40
2018-06-28T21:21:41.609Z,21.40
2018-06-28T21:24:09.797Z,21.40
2018-06-28T21:26:38.030Z,21.40
2018-06-28T21:29:06.238Z,21.40
2018-06-28T21:31:34.435Z,21.30
2018-06-28T21:34:02.638Z,21.30
2018-06-28T21:36:30.846Z,21.20
2018-06-28T21:38:59.045Z,21.20
2018-06-28T21:43:55.566Z,21.20
2018-06-28T21:46:23.778Z,21.20
2018-06-28T21:48:51.985Z,21.20
2018-06-28T21:51:20.212Z,21.20
2018-06-28T21:53:48.397Z,21.20
2018-06-28T21:58:44.592Z,21.20
2018-06-28T22:01:12.814Z,21.20
2018-06-28T22:03:41.032Z,21.20
2018-06-28T22:06:09.256Z,21.20
2018-06-28T22:08:37.513Z,21.20
2018-06-28T22:11:05.726Z,21.20
2018-06-28T22:13:33.925Z,21.20
2018-06-28T22:16:02.158Z,21.20
2018-06-28T22:18:30.386Z,21.10
2018-06-28T22:20:58.625Z,21.10
2018-06-28T22:23:26.821Z,21.00
2018-06-28T22:25:55.023Z,20.90
2018-06-28T22:28:23.227Z,20.90
2018-06-28T22:30:51.452Z,20.90
2018-06-28T22:33:19.673Z,20.90
2018-06-28T22:35:48.162Z,20.90
2018-06-28T22:38:16.361Z,20.90
2018-06-28T22:40:44.556Z,20.90
2018-06-28T22:43:12.818Z,20.90
2018-06-28T22:45:40.985Z,20.90
2018-06-28T22:48:09.410Z,20.90
2018-06-28T22:50:37.634Z,20.90
2018-06-28T22:53:06.193Z,21.00
2018-06-28T22:55:34.442Z,20.90
2018-06-28T22:58:02.766Z,20.90
2018-06-28T23:00:31.545Z,20.90
2018-06-28T23:05:27.719Z,20.90
2018-06-28T23:07:55.957Z,20.90
2018-06-28T23:10:24.246Z,20.80
2018-06-28T23:12:52.493Z,20.80
2018-06-28T23:15:20.694Z,20.80
2018-06-28T23:17:48.894Z,20.80
2018-06-28T23:20:18.042Z,20.70
2018-06-28T23:22:50.229Z,20.70
2018-06-28T23:25:18.727Z,20.70
2018-06-28T23:27:47.823Z,20.70
2018-06-28T23:30:16.422Z,20.70
2018-06-28T23:32:44.670Z,20.70
2018-06-28T23:35:12.870Z,20.70
2018-06-28T23:37:41.074Z,20.70
2018-06-28T23:40:09.313Z,20.70
2018-06-28T23:42:38.313Z,20.70
2018-06-28T23:45:07.073Z,20.70
2018-06-28T23:47:35.370Z,20.70
2018-06-28T23:50:03.630Z,20.60
2018-06-28T23:52:31.821Z,20.70
2018-06-28T23:55:00.031Z,20.70
2018-06-28T23:57:28.250Z,20.70
2018-06-28T23:59:56.479Z,20.70
